Time;durP1;ratioP1;P1;durP2;ratioP2;P2;SDS_P1;SDS_P2;PMS_P1;PMS_P2;Temp;Humidity;BMP_temperature;BMP_pressure;BME280_temperature;BME280_humidity;BME280_pressure;Samples;Min_cycle;Max_cycle;Signal;HPM_P1;HPM_P2
2021/10/20 00:00:21;;;;;;;11.63;9.77;;;14.00;99.90;;;;;;5053729;28;20462;-59
2021/10/20 00:02:49;;;;;;;10.83;9.77;;;14.00;99.90;;;;;;5053672;28;20453;-60
2021/10/20 00:05:17;;;;;;;11.43;10.27;;;14.00;99.90;;;;;;5053435;28;20450;-60
2021/10/20 00:07:44;;;;;;;11.77;10.60;;;14.00;99.90;;;;;;5053354;28;20901;-60
2021/10/20 00:10:12;;;;;;;10.57;9.57;;;13.90;99.90;;;;;;5075841;23;20488;-59
2021/10/20 00:12:40;;;;;;;10.70;9.60;;;13.90;99.90;;;;;;5053502;28;20803;-59
2021/10/20 00:15:10;;;;;;;10.03;9.03;;;13.90;99.90;;;;;;5053657;28;20849;-59
2021/10/20 00:17:37;;;;;;;11.10;9.73;;;13.90;99.90;;;;;;5053462;28;20459;-58
2021/10/20 00:20:10;;;;;;;13.30;10.40;;;13.90;99.90;;;;;;5053753;28;20471;-58
2021/10/20 00:22:39;;;;;;;10.13;8.50;;;13.90;99.90;;;;;;5053352;28;20436;-59
2021/10/20 00:25:07;;;;;;;9.63;8.70;;;13.90;99.90;;;;;;5056275;28;20964;-59
2021/10/20 00:27:36;;;;;;;11.13;9.10;;;13.90;99.90;;;;;;5058202;28;20449;-60
2021/10/20 00:30:04;;;;;;;11.30;9.40;;;13.80;99.90;;;;;;5057134;28;20492;-59
2021/10/20 00:32:31;;;;;;;9.57;8.67;;;13.90;99.90;;;;;;5057539;28;20453;-59
2021/10/20 00:34:58;;;;;;;10.40;9.20;;;13.90;99.90;;;;;;5057017;28;21005;-59
2021/10/20 00:37:25;;;;;;;10.60;9.43;;;13.90;99.90;;;;;;5057203;28;20446;-59
2021/10/20 00:39:52;;;;;;;9.63;8.60;;;13.90;99.90;;;;;;5057090;28;20453;-60
2021/10/20 00:42:21;;;;;;;10.20;9.20;;;13.90;99.90;;;;;;5056910;28;20454;-58
2021/10/20 00:44:50;;;;;;;10.17;9.13;;;13.90;99.90;;;;;;5056979;28;20509;-58
2021/10/20 00:47:18;;;;;;;10.13;9.20;;;13.90;99.90;;;;;;5056963;28;20852;-59
2021/10/20 00:49:46;;;;;;;9.63;8.73;;;13.90;99.90;;;;;;5056618;28;20824;-59
2021/10/20 00:52:14;;;;;;;10.23;9.33;;;13.90;99.90;;;;;;5056710;28;20448;-58
2021/10/20 00:54:41;;;;;;;11.47;9.40;;;13.80;99.90;;;;;;5056768;28;20482;-58
2021/10/20 00:57:11;;;;;;;10.27;9.20;;;13.80;99.90;;;;;;5056923;28;20449;-58
2021/10/20 00:59:39;;;;;;;10.00;9.10;;;13.80;99.90;;;;;;5056298;28;20967;-58
2021/10/20 01:02:09;;;;;;;9.30;8.43;;;13.80;99.90;;;;;;5056598;28;20457;-60
2021/10/20 01:04:37;;;;;;;8.90;8.00;;;13.80;99.90;;;;;;5056239;28;20443;-58
2021/10/20 01:07:04;;;;;;;9.10;8.20;;;13.80;99.90;;;;;;5056135;28;20445;-59
2021/10/20 01:09:31;;;;;;;11.17;9.60;;;13.80;99.90;;;;;;5056393;28;20818;-59
2021/10/20 01:11:59;;;;;;;9.80;8.80;;;13.80;99.90;;;;;;5055963;28;20487;-59
2021/10/20 01:14:28;;;;;;;10.53;9.10;;;13.80;99.90;;;;;;5056269;28;20482;-59
2021/10/20 01:16:56;;;;;;;10.50;9.40;;;13.80;99.90;;;;;;5056095;28;20517;-59
2021/10/20 01:19:25;;;;;;;9.63;8.47;;;13.80;99.90;;;;;;5056319;28;20448;-59
2021/10/20 01:21:54;;;;;;;9.40;8.40;;;13.80;99.90;;;;;;5056230;28;20469;-58
2021/10/20 01:24:23;;;;;;;9.67;8.67;;;13.80;99.90;;;;;;5055895;28;20458;-59
2021/10/20 01:26:51;;;;;;;9.13;8.10;;;13.80;99.90;;;;;;5055779;28;20786;-59
2021/10/20 01:29:18;;;;;;;9.60;8.70;;;13.80;99.90;;;;;;5056111;28;20455;-58
2021/10/20 01:31:47;;;;;;;8.73;7.30;;;13.80;99.90;;;;;;5056155;28;20476;-58
2021/10/20 01:34:14;;;;;;;8.00;7.20;;;13.80;99.90;;;;;;5055839;28;20509;-59
2021/10/20 01:36:43;;;;;;;8.63;7.70;;;13.80;99.90;;;;;;5055216;28;20446;-59
2021/10/20 01:39:12;;;;;;;9.80;8.80;;;13.80;99.90;;;;;;5056136;28;20459;-59
2021/10/20 01:41:39;;;;;;;10.23;8.10;;;13.80;99.90;;;;;;5057717;28;20483;-59
2021/10/20 01:44:06;;;;;;;9.67;7.53;;;13.80;99.90;;;;;;5055908;28;20447;-60
2021/10/20 01:46:34;;;;;;;9.53;8.53;;;13.90;99.90;;;;;;5056553;28;20450;-60
2021/10/20 01:49:01;;;;;;;9.10;8.20;;;13.90;99.90;;;;;;5055369;28;20827;-60
2021/10/20 01:51:28;;;;;;;9.10;8.20;;;13.80;99.90;;;;;;5055692;28;20464;-61
2021/10/20 01:53:56;;;;;;;8.50;7.60;;;13.80;99.90;;;;;;5055204;28;21023;-60
2021/10/20 01:56:24;;;;;;;9.73;8.20;;;13.80;99.90;;;;;;5055633;28;20453;-61
2021/10/20 01:58:52;;;;;;;11.53;8.00;;;13.80;99.90;;;;;;5055521;28;20446;-60
2021/10/20 02:01:19;;;;;;;10.13;7.30;;;13.80;99.90;;;;;;5055350;28;20490;-60
2021/10/20 02:03:46;;;;;;;7.70;6.90;;;13.80;99.90;;;;;;5055376;28;20450;-60
2021/10/20 02:06:15;;;;;;;9.40;8.43;;;13.80;99.90;;;;;;5055401;28;20450;-60
2021/10/20 02:08:43;;;;;;;9.00;8.10;;;13.80;99.90;;;;;;5055564;28;20453;-60
2021/10/20 02:11:10;;;;;;;7.87;7.07;;;13.80;99.90;;;;;;5054975;28;20481;-60
2021/10/20 02:13:39;;;;;;;8.13;7.33;;;13.80;99.90;;;;;;5054850;28;20490;-60
2021/10/20 02:16:07;;;;;;;8.20;7.40;;;13.80;99.90;;;;;;5055150;28;20451;-60
2021/10/20 02:18:34;;;;;;;6.70;6.00;;;13.80;99.90;;;;;;5055139;28;20459;-60
2021/10/20 02:21:02;;;;;;;7.20;6.50;;;13.80;99.90;;;;;;5054743;28;20477;-60
2021/10/20 02:23:30;;;;;;;7.30;6.60;;;13.80;99.90;;;;;;5054880;28;20504;-60
2021/10/20 02:25:57;;;;;;;7.93;7.13;;;13.90;99.90;;;;;;5054793;28;20450;-60
2021/10/20 02:28:24;;;;;;;7.07;6.40;;;13.90;99.90;;;;;;5055016;28;20451;-60
2021/10/20 02:30:53;;;;;;;6.93;6.33;;;13.80;99.90;;;;;;5054947;28;20473;-60
2021/10/20 02:33:20;;;;;;;6.30;5.70;;;13.80;99.90;;;;;;5054992;28;20444;-60
2021/10/20 02:35:47;;;;;;;7.23;5.77;;;13.80;99.90;;;;;;5054738;28;20442;-60
2021/10/20 02:38:14;;;;;;;7.53;6.83;;;13.80;99.90;;;;;;5054525;28;20968;-64
2021/10/20 02:40:41;;;;;;;7.10;6.40;;;13.80;99.90;;;;;;5054454;28;20470;-60
2021/10/20 02:43:08;;;;;;;6.57;5.87;;;13.80;99.90;;;;;;5054478;28;20442;-60
2021/10/20 02:45:36;;;;;;;6.77;5.60;;;13.80;99.90;;;;;;5054758;28;20455;-60
2021/10/20 02:48:05;;;;;;;6.87;6.17;;;13.80;99.90;;;;;;5054045;28;20804;-60
2021/10/20 02:50:32;;;;;;;7.00;6.23;;;13.80;99.90;;;;;;5054160;28;20476;-60
2021/10/20 02:52:59;;;;;;;7.33;6.60;;;13.80;99.90;;;;;;5054264;28;20455;-61
2021/10/20 02:55:26;;;;;;;6.70;6.00;;;13.80;99.90;;;;;;5054151;28;20480;-60
2021/10/20 02:57:54;;;;;;;7.40;5.80;;;13.80;99.90;;;;;;5054454;28;20448;-60
2021/10/20 03:00:21;;;;;;;8.00;6.50;;;13.80;99.90;;;;;;5054259;28;20462;-60
2021/10/20 03:02:49;;;;;;;7.23;6.53;;;13.80;99.90;;;;;;5054618;28;20447;-60
2021/10/20 03:05:17;;;;;;;6.83;5.93;;;13.80;99.90;;;;;;5054283;28;20446;-60
2021/10/20 03:07:47;;;;;;;8.10;6.23;;;13.80;99.90;;;;;;5053943;28;20447;-60
2021/10/20 03:10:15;;;;;;;7.20;6.50;;;13.80;99.90;;;;;;5053845;28;21015;-60
2021/10/20 03:12:42;;;;;;;7.00;5.80;;;13.70;99.90;;;;;;5053827;28;20506;-60
2021/10/20 03:15:10;;;;;;;7.00;6.40;;;13.80;99.90;;;;;;5054073;28;20482;-61
2021/10/20 03:17:38;;;;;;;6.80;5.90;;;13.70;99.90;;;;;;5054052;28;20445;-60
2021/10/20 03:20:08;;;;;;;6.60;6.00;;;13.70;99.90;;;;;;5053934;28;20469;-60
2021/10/20 03:22:38;;;;;;;7.40;6.70;;;13.70;99.90;;;;;;5053723;28;20435;-60
2021/10/20 03:25:07;;;;;;;6.27;5.70;;;13.70;99.90;;;;;;5053967;28;20491;-60
2021/10/20 03:27:40;;;;;;;8.70;6.23;;;13.70;99.90;;;;;;5054046;28;20452;-61
2021/10/20 03:30:07;;;;;;;8.50;6.63;;;13.70;99.90;;;;;;5053507;28;20471;-60
2021/10/20 03:32:34;;;;;;;7.50;6.30;;;13.70;99.90;;;;;;5053611;28;20450;-61
2021/10/20 03:35:01;;;;;;;6.63;5.93;;;13.70;99.90;;;;;;5053941;28;20483;-60
2021/10/20 03:37:28;;;;;;;6.73;6.03;;;13.70;99.90;;;;;;5053691;28;20450;-60
2021/10/20 03:39:57;;;;;;;6.23;5.70;;;13.70;99.90;;;;;;5053289;28;20476;-61
2021/10/20 03:42:24;;;;;;;6.40;5.80;;;13.70;99.90;;;;;;5053442;28;20457;-59
2021/10/20 03:44:52;;;;;;;6.70;6.00;;;13.70;99.90;;;;;;5053354;28;20935;-60
2021/10/20 03:47:20;;;;;;;7.70;5.90;;;13.70;99.90;;;;;;5053283;28;20449;-60
2021/10/20 03:49:47;;;;;;;5.90;5.40;;;13.70;99.90;;;;;;5054220;28;20842;-60
2021/10/20 03:52:14;;;;;;;7.07;6.37;;;13.60;99.90;;;;;;5053478;28;20818;-60
2021/10/20 03:54:42;;;;;;;6.60;6.00;;;13.60;99.90;;;;;;5053808;28;20474;-60
2021/10/20 03:57:10;;;;;;;7.50;6.53;;;13.60;99.90;;;;;;5054402;28;20464;-60
2021/10/20 03:59:37;;;;;;;7.53;6.03;;;13.60;99.90;;;;;;5053086;28;20446;-60
2021/10/20 04:02:05;;;;;;;7.83;6.47;;;13.50;99.90;;;;;;5053580;28;20448;-60
2021/10/20 04:04:32;;;;;;;6.43;5.83;;;13.50;99.90;;;;;;5053114;28;20955;-59
2021/10/20 04:08:47;;;;;;;6.33;5.60;;;13.50;99.90;;;;;;5071259;28;20557;-58
2021/10/20 04:11:15;;;;;;;6.57;5.90;;;13.40;99.90;;;;;;5071124;28;20493;-57
2021/10/20 04:13:42;;;;;;;6.83;6.13;;;13.40;99.90;;;;;;5071030;28;20451;-58
2021/10/20 04:16:10;;;;;;;7.63;6.17;;;13.30;99.90;;;;;;5070662;28;20449;-59
2021/10/20 04:18:37;;;;;;;6.90;6.20;;;13.30;99.90;;;;;;5070286;28;20987;-59
2021/10/20 04:21:04;;;;;;;7.10;5.90;;;13.30;99.90;;;;;;5070233;28;20490;-59
2021/10/20 04:23:32;;;;;;;7.33;5.70;;;13.30;99.90;;;;;;5070332;28;20942;-59
2021/10/20 04:26:00;;;;;;;6.93;6.23;;;13.30;99.90;;;;;;5070069;28;20449;-58
2021/10/20 04:28:27;;;;;;;5.90;5.30;;;13.30;99.90;;;;;;5069969;28;20469;-58
2021/10/20 04:30:54;;;;;;;5.80;5.20;;;13.30;99.90;;;;;;5069940;28;20463;-59
2021/10/20 04:33:21;;;;;;;6.40;5.80;;;13.30;99.90;;;;;;5070353;28;20860;-59
2021/10/20 04:35:48;;;;;;;7.50;6.07;;;13.30;99.90;;;;;;5069921;28;20947;-60
2021/10/20 04:38:16;;;;;;;7.00;6.40;;;13.30;99.90;;;;;;5070095;28;20479;-59
2021/10/20 04:40:43;;;;;;;6.27;5.67;;;13.30;99.90;;;;;;5069997;28;20466;-59
2021/10/20 04:43:12;;;;;;;7.20;5.30;;;13.30;99.90;;;;;;5070091;28;20812;-60
2021/10/20 04:45:39;;;;;;;7.50;5.87;;;13.30;99.90;;;;;;5069752;28;20828;-60
2021/10/20 04:48:06;;;;;;;6.53;5.60;;;13.30;99.90;;;;;;5069588;28;20472;-59
2021/10/20 04:50:33;;;;;;;6.23;5.53;;;13.30;99.90;;;;;;5069871;28;20470;-59
2021/10/20 04:53:00;;;;;;;5.80;5.10;;;13.30;99.90;;;;;;5069840;28;20449;-59
2021/10/20 04:55:28;;;;;;;5.70;5.13;;;13.30;99.90;;;;;;5069832;28;20466;-60
2021/10/20 04:57:55;;;;;;;5.80;5.23;;;13.30;99.90;;;;;;5069715;28;20446;-60
2021/10/20 05:00:25;;;;;;;8.33;5.50;;;13.30;99.90;;;;;;5069327;28;20480;-60
2021/10/20 05:02:52;;;;;;;6.40;5.60;;;13.30;99.90;;;;;;5069313;28;20452;-59
2021/10/20 05:05:20;;;;;;;5.50;5.00;;;13.30;99.90;;;;;;5069392;28;20446;-61
2021/10/20 05:07:48;;;;;;;12.80;5.70;;;13.30;99.90;;;;;;5069043;28;20671;-59
2021/10/20 05:10:16;;;;;;;8.40;5.93;;;13.40;99.90;;;;;;5069429;28;20457;-61
2021/10/20 05:12:43;;;;;;;6.03;5.53;;;13.40;99.90;;;;;;5069144;28;20452;-59
2021/10/20 05:15:12;;;;;;;7.27;5.90;;;13.40;99.90;;;;;;5069206;28;20450;-60
2021/10/20 05:17:40;;;;;;;6.17;5.57;;;13.50;99.90;;;;;;5069152;28;20487;-60
2021/10/20 05:20:09;;;;;;;7.90;5.73;;;13.60;99.90;;;;;;5055475;28;20468;-61
2021/10/20 05:22:36;;;;;;;5.47;4.97;;;13.70;99.90;;;;;;5055781;28;20944;-59
2021/10/20 05:25:05;;;;;;;5.60;5.10;;;13.80;99.90;;;;;;5055837;28;20452;-60
2021/10/20 05:27:32;;;;;;;5.20;4.70;;;13.90;99.90;;;;;;5054778;28;20482;-61
2021/10/20 05:29:59;;;;;;;8.70;5.57;;;14.00;99.90;;;;;;5055350;28;21008;-60
2021/10/20 05:32:27;;;;;;;7.27;5.40;;;14.10;99.90;;;;;;5055555;28;20448;-60
2021/10/20 05:34:56;;;;;;;6.87;5.57;;;14.20;99.90;;;;;;5055501;28;20959;-60
2021/10/20 05:37:23;;;;;;;7.60;5.07;;;14.30;99.90;;;;;;5055286;28;20455;-60
2021/10/20 05:39:52;;;;;;;6.13;5.40;;;14.50;99.90;;;;;;5055230;28;20463;-60
2021/10/20 05:42:20;;;;;;;6.80;5.27;;;14.60;99.90;;;;;;5055389;28;20444;-60
2021/10/20 05:44:47;;;;;;;7.07;5.77;;;14.60;99.90;;;;;;5055249;28;20944;-60
2021/10/20 05:47:15;;;;;;;6.23;5.53;;;14.70;99.90;;;;;;5055229;28;20481;-58
2021/10/20 05:49:42;;;;;;;8.00;5.60;;;14.80;99.90;;;;;;5055222;28;20453;-60
2021/10/20 05:52:10;;;;;;;6.50;5.43;;;14.80;99.90;;;;;;5055126;28;20451;-58
2021/10/20 05:54:37;;;;;;;5.40;4.90;;;14.90;99.90;;;;;;5055031;28;20444;-61
2021/10/20 05:57:05;;;;;;;6.27;5.33;;;14.90;99.90;;;;;;5054952;28;20447;-58
2021/10/20 05:59:32;;;;;;;10.50;5.67;;;14.90;99.90;;;;;;5055108;28;20444;-59
2021/10/20 06:01:59;;;;;;;7.50;5.57;;;15.00;99.90;;;;;;5055303;28;20469;-59
2021/10/20 06:04:26;;;;;;;6.50;5.50;;;15.00;99.80;;;;;;5055046;28;20448;-59
2021/10/20 06:06:53;;;;;;;5.20;4.70;;;15.10;99.30;;;;;;5054828;28;20456;-59
2021/10/20 06:09:22;;;;;;;7.70;5.53;;;15.10;99.00;;;;;;5054978;28;20449;-60
2021/10/20 06:11:49;;;;;;;6.23;5.70;;;15.10;98.90;;;;;;5056267;28;20470;-59
2021/10/20 06:14:16;;;;;;;5.67;5.17;;;15.10;98.80;;;;;;5054925;28;20445;-59
2021/10/20 06:16:43;;;;;;;6.33;5.70;;;15.20;98.80;;;;;;5054880;28;20456;-59
2021/10/20 06:19:10;;;;;;;5.70;5.20;;;15.20;98.70;;;;;;5054458;28;20449;-60
2021/10/20 06:21:37;;;;;;;6.30;5.63;;;15.20;98.60;;;;;;5054418;28;20980;-59
2021/10/20 06:24:06;;;;;;;8.43;4.67;;;15.20;98.40;;;;;;5054615;28;20451;-60
2021/10/20 06:26:34;;;;;;;6.13;5.57;;;15.20;98.10;;;;;;5055125;28;20449;-60
2021/10/20 06:29:02;;;;;;;5.73;5.03;;;15.20;98.10;;;;;;5054101;28;20485;-60
2021/10/20 06:31:29;;;;;;;6.20;5.60;;;15.20;98.00;;;;;;5053734;28;20461;-60
2021/10/20 06:33:57;;;;;;;5.83;4.67;;;15.20;98.00;;;;;;5054539;28;20444;-59
2021/10/20 06:36:29;;;;;;;6.00;5.30;;;15.30;97.90;;;;;;5054228;28;20930;-61
2021/10/20 06:38:57;;;;;;;5.53;4.80;;;15.30;97.70;;;;;;5054229;28;20438;-60
2021/10/20 06:41:24;;;;;;;6.17;5.60;;;15.30;97.70;;;;;;5053950;28;20468;-60
2021/10/20 06:43:52;;;;;;;7.43;6.37;;;15.30;97.70;;;;;;5054174;28;21005;-59
2021/10/20 06:46:19;;;;;;;5.53;5.03;;;15.40;97.60;;;;;;5054336;28;20545;-60
2021/10/20 06:48:47;;;;;;;5.63;4.90;;;15.40;97.50;;;;;;5054214;28;20479;-60
2021/10/20 06:51:15;;;;;;;9.27;5.50;;;15.40;97.40;;;;;;5054643;28;20537;-60
2021/10/20 06:53:42;;;;;;;7.80;5.93;;;15.40;97.20;;;;;;5054986;28;20834;-57
2021/10/20 06:56:09;;;;;;;5.90;5.33;;;15.50;97.20;;;;;;5053977;28;20448;-59
2021/10/20 06:58:36;;;;;;;8.60;6.20;;;15.50;97.20;;;;;;5054051;28;20451;-60
2021/10/20 07:01:05;;;;;;;6.23;5.37;;;15.40;97.20;;;;;;5053690;28;20958;-59
2021/10/20 07:03:32;;;;;;;5.87;5.27;;;15.40;97.30;;;;;;5054273;28;20449;-59
2021/10/20 07:05:59;;;;;;;5.83;5.23;;;15.40;97.30;;;;;;5053784;28;20449;-59
2021/10/20 07:08:27;;;;;;;6.23;5.73;;;15.40;97.40;;;;;;5053255;28;20490;-59
2021/10/20 07:10:54;;;;;;;6.30;5.70;;;15.40;97.40;;;;;;5053366;28;20475;-59
2021/10/20 07:13:21;;;;;;;6.10;5.50;;;15.40;97.20;;;;;;5053570;28;20442;-60
2021/10/20 07:15:49;;;;;;;7.20;6.50;;;15.40;97.20;;;;;;5054638;28;20439;-59
2021/10/20 07:18:18;;;;;;;6.37;5.77;;;15.50;97.20;;;;;;5053743;28;20453;-60
2021/10/20 07:20:45;;;;;;;5.80;5.27;;;15.50;97.10;;;;;;5053097;28;20461;-60
2021/10/20 07:23:12;;;;;;;8.40;5.73;;;15.50;96.90;;;;;;5053266;28;20935;-59
2021/10/20 07:25:39;;;;;;;6.67;6.00;;;15.50;96.70;;;;;;5053375;28;20444;-59
2021/10/20 07:28:09;;;;;;;6.27;5.67;;;15.50;96.60;;;;;;5053536;28;20498;-58
2021/10/20 07:30:36;;;;;;;7.80;6.30;;;15.60;96.50;;;;;;5053199;28;20467;-59
2021/10/20 07:33:04;;;;;;;6.50;5.90;;;15.60;96.40;;;;;;5053256;28;20443;-58
2021/10/20 07:35:32;;;;;;;6.63;5.93;;;15.60;96.30;;;;;;5053269;28;20953;-60
2021/10/20 07:37:59;;;;;;;6.57;5.27;;;15.70;96.20;;;;;;5053557;28;20439;-59
2021/10/20 07:40:26;;;;;;;10.33;5.70;;;15.80;96.30;;;;;;5053391;28;20467;-62
2021/10/20 07:42:54;;;;;;;6.50;5.90;;;15.80;95.80;;;;;;5053191;28;20442;-59
2021/10/20 07:45:21;;;;;;;6.00;5.20;;;15.90;95.60;;;;;;5053413;28;20482;-59
2021/10/20 07:47:49;;;;;;;5.80;5.23;;;15.90;95.50;;;;;;5053177;28;20486;-59
2021/10/20 07:50:17;;;;;;;7.27;5.80;;;15.90;95.40;;;;;;5052790;28;20977;-60
2021/10/20 07:52:49;;;;;;;9.90;6.43;;;16.00;95.40;;;;;;5053015;28;20459;-59
2021/10/20 07:55:17;;;;;;;5.83;5.23;;;16.00;95.30;;;;;;5053611;28;20476;-60
2021/10/20 07:57:45;;;;;;;6.27;5.40;;;16.10;95.10;;;;;;5053319;28;20450;-59
2021/10/20 08:00:14;;;;;;;7.00;5.90;;;16.10;95.00;;;;;;5053268;28;20461;-59
2021/10/20 08:02:42;;;;;;;6.20;5.60;;;16.10;94.80;;;;;;5053706;28;20447;-59
2021/10/20 08:05:14;;;;;;;6.80;6.10;;;16.20;94.70;;;;;;5053098;28;20448;-60
2021/10/20 08:07:45;;;;;;;7.07;5.63;;;16.20;94.70;;;;;;5052573;28;20542;-59
2021/10/20 08:10:14;;;;;;;6.53;5.93;;;16.20;94.60;;;;;;5053095;28;20529;-59
2021/10/20 08:12:42;;;;;;;5.30;4.63;;;16.30;94.40;;;;;;5053151;28;20462;-59
2021/10/20 08:15:10;;;;;;;5.77;5.17;;;16.30;94.30;;;;;;5052702;28;20486;-59
2021/10/20 08:17:38;;;;;;;6.90;6.20;;;16.40;94.10;;;;;;5052633;28;20451;-60
2021/10/20 08:20:07;;;;;;;5.93;4.77;;;16.40;93.90;;;;;;5052534;28;20478;-60
2021/10/20 08:22:34;;;;;;;6.20;5.57;;;16.50;93.80;;;;;;5053009;28;20458;-60
2021/10/20 08:25:01;;;;;;;5.77;5.00;;;16.50;93.60;;;;;;5052629;28;20447;-59
2021/10/20 08:27:29;;;;;;;6.17;5.50;;;16.60;93.50;;;;;;5052916;28;20477;-59
2021/10/20 08:29:56;;;;;;;6.53;5.73;;;16.60;93.30;;;;;;5052725;28;20545;-59
2021/10/20 08:32:24;;;;;;;6.30;5.60;;;16.60;93.10;;;;;;5052891;28;20443;-59
2021/10/20 08:34:52;;;;;;;5.57;5.03;;;16.70;93.00;;;;;;5052604;28;20446;-59
2021/10/20 08:37:19;;;;;;;7.13;5.23;;;16.70;92.90;;;;;;5052709;28;20455;-59
2021/10/20 08:39:46;;;;;;;5.87;5.27;;;16.70;92.70;;;;;;5052485;28;20448;-59
2021/10/20 08:42:14;;;;;;;6.80;6.20;;;16.70;92.50;;;;;;5052826;28;20444;-59
2021/10/20 08:44:42;;;;;;;6.20;5.13;;;16.70;92.40;;;;;;5052433;28;20447;-60
2021/10/20 08:47:09;;;;;;;6.50;5.13;;;16.70;92.40;;;;;;5053890;28;20447;-60
2021/10/20 08:49:40;;;;;;;7.17;5.17;;;16.70;92.30;;;;;;5052002;28;20483;-60
2021/10/20 08:52:09;;;;;;;6.40;5.40;;;16.70;92.20;;;;;;5053575;28;20444;-58
2021/10/20 08:54:36;;;;;;;6.03;5.43;;;16.80;92.10;;;;;;5054819;28;20444;-60
2021/10/20 08:57:04;;;;;;;8.13;5.50;;;16.80;92.00;;;;;;5055927;28;20501;-59
2021/10/20 08:59:32;;;;;;;5.33;4.83;;;16.90;91.90;;;;;;5056310;28;20454;-61
2021/10/20 09:02:05;;;;;;;6.50;4.83;;;16.90;91.70;;;;;;5055672;28;20468;-61
2021/10/20 09:04:32;;;;;;;6.47;5.03;;;17.00;91.50;;;;;;5055889;28;20943;-59
2021/10/20 09:07:02;;;;;;;5.30;4.80;;;17.00;91.40;;;;;;5055751;28;20452;-58
2021/10/20 09:09:38;;;;;;;5.90;5.40;;;17.10;91.40;;;;;;5055941;28;20483;-60
2021/10/20 09:12:05;;;;;;;5.57;4.80;;;17.10;91.20;;;;;;5056075;28;20428;-59
2021/10/20 09:14:33;;;;;;;5.30;4.60;;;17.20;91.10;;;;;;5055658;28;20455;-60
2021/10/20 09:17:04;;;;;;;6.30;5.33;;;17.20;91.00;;;;;;5055884;28;20451;-59
2021/10/20 09:19:33;;;;;;;6.43;5.83;;;17.20;91.00;;;;;;5055501;28;20432;-59
2021/10/20 09:22:03;;;;;;;5.47;4.90;;;17.20;90.90;;;;;;5056030;28;20531;-60
2021/10/20 09:24:36;;;;;;;5.77;5.03;;;17.20;90.80;;;;;;5055596;28;20451;-59
2021/10/20 09:27:05;;;;;;;4.20;3.80;;;17.30;90.80;;;;;;5055876;28;20436;-59
2021/10/20 09:29:34;;;;;;;6.67;4.53;;;17.30;90.60;;;;;;5056307;28;20570;-60
2021/10/20 09:32:02;;;;;;;6.33;4.97;;;17.40;90.50;;;;;;5055604;28;20924;-60
2021/10/20 09:34:36;;;;;;;5.77;4.57;;;17.50;90.30;;;;;;5055676;28;20440;-60
2021/10/20 09:37:03;;;;;;;6.00;5.13;;;17.60;90.10;;;;;;5055800;28;20443;-59
2021/10/20 09:39:31;;;;;;;6.23;5.10;;;17.60;90.00;;;;;;5055728;28;20501;-61
2021/10/20 09:42:08;;;;;;;5.83;5.20;;;17.70;90.10;;;;;;5055408;28;20982;-60
2021/10/20 09:44:47;;;;;;;6.77;4.50;;;17.70;89.90;;;;;;5055670;28;20498;-59
2021/10/20 09:47:15;;;;;;;7.33;4.70;;;17.80;89.80;;;;;;5055195;28;20990;-59
2021/10/20 09:49:50;;;;;;;6.03;5.10;;;17.70;89.70;;;;;;5055223;28;20529;-60
2021/10/20 09:52:18;;;;;;;6.30;5.13;;;17.60;90.00;;;;;;5055245;28;20455;-59
2021/10/20 09:54:45;;;;;;;5.10;4.17;;;17.50;90.10;;;;;;5055161;28;20459;-60
2021/10/20 09:57:15;;;;;;;7.77;4.47;;;17.50;90.40;;;;;;5055489;28;20440;-60
2021/10/20 09:59:43;;;;;;;5.20;4.67;;;17.40;90.50;;;;;;5055134;28;20924;-60
2021/10/20 10:02:11;;;;;;;5.40;4.90;;;17.40;90.70;;;;;;5055067;28;20440;-59
2021/10/20 10:04:39;;;;;;;6.97;4.60;;;17.50;90.80;;;;;;5055100;28;20559;-59
2021/10/20 10:07:08;;;;;;;10.50;5.03;;;17.60;90.70;;;;;;5054825;28;20460;-60
2021/10/20 10:09:35;;;;;;;5.60;4.73;;;17.70;90.50;;;;;;5054922;28;20480;-59
2021/10/20 10:12:09;;;;;;;5.00;4.27;;;17.80;90.50;;;;;;5054820;28;20456;-59
2021/10/20 10:14:40;;;;;;;6.20;4.90;;;18.00;90.40;;;;;;5055092;28;20432;-60
2021/10/20 10:17:09;;;;;;;4.90;4.40;;;18.10;90.10;;;;;;5054413;28;20429;-60
2021/10/20 10:19:40;;;;;;;5.50;4.00;;;18.30;89.70;;;;;;5053726;28;20444;-59
2021/10/20 10:22:27;;;;;;;4.80;4.00;;;18.40;89.30;;;;;;5055025;28;20790;-60
2021/10/20 10:24:59;;;;;;;4.33;3.93;;;18.40;89.10;;;;;;5055258;28;20433;-60
2021/10/20 10:27:28;;;;;;;6.40;4.80;;;18.50;89.10;;;;;;5054295;28;20927;-60
2021/10/20 10:30:00;;;;;;;6.33;5.73;;;18.50;88.80;;;;;;5054047;28;20498;-61
2021/10/20 10:32:28;;;;;;;5.53;4.30;;;18.50;89.00;;;;;;5054720;28;20429;-60
2021/10/20 10:34:56;;;;;;;6.00;4.53;;;18.50;89.10;;;;;;5054630;28;20789;-61
2021/10/20 10:37:26;;;;;;;4.93;4.43;;;18.50;89.30;;;;;;5054790;28;20518;-60
2021/10/20 10:39:55;;;;;;;6.13;4.50;;;18.40;89.50;;;;;;5054193;28;21007;-60
2021/10/20 10:42:31;;;;;;;5.43;4.93;;;18.40;89.70;;;;;;5054268;28;20451;-62
2021/10/20 10:45:11;;;;;;;6.13;5.10;;;18.40;90.00;;;;;;5054069;28;20438;-60
2021/10/20 10:47:55;;;;;;;4.60;4.20;;;18.40;90.10;;;;;;5054336;28;20428;-61
2021/10/20 10:50:37;;;;;;;5.47;4.30;;;18.40;90.20;;;;;;5054003;28;20912;-61
2021/10/20 10:53:06;;;;;;;5.00;4.50;;;18.30;90.20;;;;;;5054443;28;20772;-61
2021/10/20 10:55:34;;;;;;;6.60;4.23;;;18.30;90.40;;;;;;5054172;28;20482;-62
2021/10/20 10:58:03;;;;;;;5.17;4.63;;;18.30;90.50;;;;;;5053918;28;20443;-60
2021/10/20 11:00:45;;;;;;;5.80;5.30;;;18.30;90.60;;;;;;5054322;28;20543;-61
2021/10/20 11:03:27;;;;;;;5.10;4.60;;;18.30;90.70;;;;;;5054439;28;20428;-60
2021/10/20 11:05:57;;;;;;;5.60;5.10;;;18.40;90.80;;;;;;5053957;28;20432;-61
2021/10/20 11:08:27;;;;;;;6.13;4.63;;;18.50;90.70;;;;;;5053558;28;20491;-61
2021/10/20 11:10:54;;;;;;;5.73;4.80;;;18.60;90.70;;;;;;5054654;28;20464;-60
2021/10/20 11:13:22;;;;;;;5.90;5.00;;;18.60;90.50;;;;;;5053565;28;20438;-62
2021/10/20 11:15:50;;;;;;;5.30;4.80;;;18.70;90.50;;;;;;5053150;28;20954;-60
2021/10/20 11:18:20;;;;;;;5.03;4.47;;;18.70;90.40;;;;;;5053720;28;20436;-60
2021/10/20 11:20:47;;;;;;;5.30;4.50;;;18.70;90.40;;;;;;5053641;28;20877;-60
2021/10/20 11:23:17;;;;;;;5.97;4.43;;;18.80;90.40;;;;;;5053009;28;20446;-59
2021/10/20 11:25:47;;;;;;;5.93;5.43;;;18.90;90.30;;;;;;5053137;28;20458;-60
2021/10/20 11:28:15;;;;;;;6.27;4.77;;;18.90;90.20;;;;;;5053473;28;20428;-60
2021/10/20 11:30:43;;;;;;;6.37;5.57;;;19.00;90.10;;;;;;5053550;28;20494;-60
2021/10/20 11:33:13;;;;;;;5.30;4.80;;;19.00;90.00;;;;;;5053406;28;20436;-60
2021/10/20 11:35:40;;;;;;;5.40;4.90;;;19.10;90.00;;;;;;5053163;28;20444;-60
2021/10/20 11:38:09;;;;;;;5.93;4.97;;;19.10;89.80;;;;;;5053593;28;20448;-60
2021/10/20 11:40:38;;;;;;;4.70;4.30;;;19.20;89.80;;;;;;5053391;28;20468;-60
2021/10/20 11:43:18;;;;;;;6.93;4.90;;;19.20;89.60;;;;;;5053222;28;20461;-60
2021/10/20 11:45:45;;;;;;;5.23;4.73;;;19.20;89.60;;;;;;5053371;28;20431;-60
2021/10/20 11:48:18;;;;;;;5.70;5.13;;;19.10;89.70;;;;;;5053454;28;20444;-60
2021/10/20 11:50:49;;;;;;;5.20;4.70;;;19.00;89.90;;;;;;5053104;28;20488;-60
2021/10/20 11:53:16;;;;;;;7.03;5.23;;;19.00;90.00;;;;;;5052998;28;20444;-61
2021/10/20 11:55:44;;;;;;;7.50;4.90;;;18.90;90.20;;;;;;5053704;28;20463;-61
2021/10/20 11:58:19;;;;;;;8.20;4.87;;;18.90;90.30;;;;;;5052538;28;20447;-60
2021/10/20 12:00:53;;;;;;;4.73;4.20;;;18.80;90.50;;;;;;5052518;28;20460;-59
2021/10/20 12:03:20;;;;;;;5.53;4.93;;;18.70;90.50;;;;;;5052972;28;20425;-60
2021/10/20 12:05:48;;;;;;;5.50;4.80;;;18.60;90.50;;;;;;5052990;28;20447;-61
2021/10/20 12:08:15;;;;;;;7.90;5.47;;;18.60;90.60;;;;;;5053329;28;20507;-60
2021/10/20 12:10:43;;;;;;;5.67;4.93;;;18.50;90.70;;;;;;5074665;23;20495;-61
2021/10/20 12:13:10;;;;;;;5.03;4.60;;;18.50;90.90;;;;;;5032819;28;20417;-62
2021/10/20 12:15:42;;;;;;;6.83;5.43;;;18.40;91.30;;;;;;5032515;28;20441;-59
2021/10/20 12:18:11;;;;;;;5.77;5.17;;;18.30;91.80;;;;;;5032627;28;20432;-61
2021/10/20 12:20:39;;;;;;;6.23;5.57;;;18.20;92.50;;;;;;5032194;28;20455;-60
2021/10/20 12:23:08;;;;;;;6.93;5.90;;;18.10;92.90;;;;;;5033544;28;20445;-60
2021/10/20 12:25:37;;;;;;;6.70;5.40;;;18.00;93.20;;;;;;5032324;28;20440;-59
2021/10/20 12:28:04;;;;;;;6.50;5.83;;;17.90;93.40;;;;;;5032084;28;20956;-62
2021/10/20 12:30:32;;;;;;;5.50;5.00;;;17.90;93.80;;;;;;5036156;28;20480;-63
2021/10/20 12:33:09;;;;;;;5.50;4.60;;;17.90;93.60;;;;;;5036369;28;20449;-61
2021/10/20 12:35:37;;;;;;;6.07;5.57;;;17.90;93.70;;;;;;5036454;28;20429;-60
2021/10/20 12:38:05;;;;;;;5.17;4.67;;;17.90;93.60;;;;;;5036842;28;20452;-61
2021/10/20 12:40:33;;;;;;;5.50;4.40;;;17.90;93.50;;;;;;5036057;28;21003;-62
2021/10/20 12:43:05;;;;;;;6.90;4.97;;;17.90;93.40;;;;;;5037158;28;20455;-61
2021/10/20 12:45:33;;;;;;;5.70;4.93;;;17.90;93.40;;;;;;5036143;28;20472;-61
2021/10/20 12:48:02;;;;;;;5.70;5.20;;;18.00;93.40;;;;;;5036049;28;20441;-61
2021/10/20 12:50:32;;;;;;;8.00;6.17;;;18.00;93.30;;;;;;5036107;28;20484;-62
2021/10/20 12:52:59;;;;;;;5.63;4.57;;;18.00;93.30;;;;;;5035956;28;20445;-61